Time;durP1;ratioP1;P1;durP2;ratioP2;P2;SDS_P1;SDS_P2;PMS_P1;PMS_P2;Temp;Humidity;BMP_temperature;BMP_pressure;BME280_temperature;BME280_humidity;BME280_pressure;Samples;Min_cycle;Max_cycle;Signal;HPM_P1;HPM_P2
2022/04/01 00:00:34;;;;;;;14.98;13.20;;;;;;;5.68;71.63;97103.41;2621653;54;20026;-62
2022/04/01 00:03:08;;;;;;;13.65;12.30;;;;;;;5.67;71.58;97101.81;2621440;54;20023;-62
2022/04/01 00:05:39;;;;;;;14.77;12.68;;;;;;;5.62;71.51;97104.22;2621488;54;20022;-61
2022/04/01 00:08:09;;;;;;;15.07;13.45;;;;;;;5.43;71.57;97111.09;2619818;54;20098;-61
2022/04/01 00:10:40;;;;;;;15.10;13.50;;;;;;;5.51;71.85;97111.88;2619708;54;20151;-61
2022/04/01 00:13:10;;;;;;;14.55;13.05;;;;;;;5.54;71.75;97104.41;2619754;54;20038;-62
2022/04/01 00:15:40;;;;;;;14.30;12.80;;;;;;;5.50;71.37;97103.22;2622664;47;20520;-62
2022/04/01 00:18:12;;;;;;;15.20;13.65;;;;;;;5.51;72.01;97114.50;2623090;54;20038;-64
2022/04/01 00:20:42;;;;;;;16.30;14.57;;;;;;;5.53;71.79;97110.66;2622609;54;20026;-62
2022/04/01 00:23:12;;;;;;;14.80;13.30;;;;;;;5.46;71.88;97115.09;2622967;54;20041;-63
2022/04/01 00:25:42;;;;;;;14.88;13.38;;;;;;;5.50;72.13;97118.13;2623495;54;20069;-62
2022/04/01 00:28:11;;;;;;;14.85;12.98;;;;;;;5.51;72.15;97112.72;2623086;54;20035;-61
2022/04/01 00:30:42;;;;;;;15.52;13.90;;;;;;;5.57;71.83;97113.69;2623574;54;20065;-63
2022/04/01 00:33:18;;;;;;;15.18;13.60;;;;;;;5.44;71.76;97107.44;2622650;54;20062;-62
2022/04/01 00:35:47;;;;;;;16.17;14.48;;;;;;;5.38;71.98;97110.06;2622808;54;20018;-61
2022/04/01 00:38:17;;;;;;;17.20;14.75;;;;;;;5.42;72.10;97108.66;2622604;54;20034;-61
2022/04/01 00:40:48;;;;;;;14.25;12.85;;;;;;;5.42;72.24;97119.13;2623650;54;20035;-62
2022/04/01 00:43:17;;;;;;;16.65;14.60;;;;;;;5.54;72.50;97109.66;2623278;54;20026;-61
2022/04/01 00:45:47;;;;;;;15.40;13.80;;;;;;;5.60;71.68;97115.94;2622969;54;20026;-62
2022/04/01 00:48:19;;;;;;;16.23;14.60;;;;;;;5.62;71.69;97106.84;2623668;39;20418;-62
2022/04/01 00:50:52;;;;;;;17.08;15.07;;;;;;;5.67;71.53;97107.06;2623130;54;20049;-61
2022/04/01 00:53:23;;;;;;;17.45;15.65;;;;;;;5.58;71.58;97116.13;2623139;54;20030;-62
2022/04/01 00:55:53;;;;;;;15.75;14.02;;;;;;;5.51;71.49;97110.09;2622596;54;20041;-61
2022/04/01 00:58:23;;;;;;;17.20;14.73;;;;;;;5.55;71.64;97110.47;2622299;46;20046;-62
2022/04/01 01:00:53;;;;;;;16.42;14.70;;;;;;;5.35;71.88;97110.47;2622706;47;20042;-62
2022/04/01 01:03:26;;;;;;;19.63;16.45;;;;;;;5.39;71.98;97112.50;2623125;54;20019;-62
2022/04/01 01:05:57;;;;;;;18.13;15.20;;;;;;;5.39;71.89;97109.06;2623263;39;20417;-62
2022/04/01 01:08:26;;;;;;;17.45;15.48;;;;;;;5.37;72.02;97109.25;2622241;54;20038;-61
2022/04/01 01:10:58;;;;;;;17.60;15.77;;;;;;;5.48;71.95;97100.00;2623113;54;20037;-63
2022/04/01 01:13:29;;;;;;;17.55;15.75;;;;;;;5.50;72.13;97105.81;2623251;54;20038;-62
2022/04/01 01:15:59;;;;;;;20.67;17.75;;;;;;;5.51;71.93;97102.22;2623907;47;20036;-62
2022/04/01 01:18:31;;;;;;;19.83;16.10;;;;;;;5.38;72.09;97100.38;2623943;54;20050;-61
2022/04/01 01:21:01;;;;;;;18.20;15.63;;;;;;;5.46;72.03;97102.81;2622354;51;20042;-62
2022/04/01 01:23:34;;;;;;;18.92;16.52;;;;;;;5.52;72.18;97095.97;2621464;54;20054;-61
2022/04/01 01:26:07;;;;;;;20.50;17.67;;;;;;;5.35;72.07;97092.94;2621991;52;20026;-61
2022/04/01 01:28:37;;;;;;;18.48;16.48;;;;;;;5.26;71.96;97094.13;2622956;54;20034;-61
2022/04/01 01:31:07;;;;;;;22.25;18.27;;;;;;;5.30;72.33;97089.28;2623074;54;20797;-60
2022/04/01 01:33:39;;;;;;;21.27;18.05;;;;;;;5.26;72.29;97095.94;2621941;54;20026;-61
2022/04/01 01:36:09;;;;;;;17.45;15.32;;;;;;;5.27;72.60;97093.13;2622097;54;20034;-62
2022/04/01 01:38:40;;;;;;;22.02;18.63;;;;;;;5.23;72.64;97089.31;2622773;54;20557;-61
2022/04/01 01:41:14;;;;;;;19.95;16.80;;;;;;;5.26;72.43;97094.13;2622372;54;20034;-61
2022/04/01 01:43:44;;;;;;;20.77;16.70;;;;;;;5.24;72.64;97085.66;2622546;54;20671;-61
2022/04/01 01:46:14;;;;;;;21.20;17.38;;;;;;;5.29;72.46;97085.88;2623039;54;20041;-63
2022/04/01 01:48:44;;;;;;;23.33;18.77;;;;;;;5.18;72.34;97087.28;2622353;47;20041;-60
2022/04/01 01:56:43;;;;;;;21.17;17.50;;;;;;;5.15;72.65;97089.50;2621857;47;20034;-60
2022/04/01 01:59:12;;;;;;;22.45;18.20;;;;;;;5.23;72.73;97097.16;2621864;47;20038;-62
2022/04/01 02:01:43;;;;;;;22.65;17.52;;;;;;;5.25;72.42;97087.28;2621333;54;20560;-62
2022/04/01 02:04:13;;;;;;;22.05;18.30;;;;;;;5.20;72.43;97090.50;2619234;54;20147;-60
2022/04/01 02:06:43;;;;;;;21.67;18.67;;;;;;;5.09;72.37;97082.41;2619913;54;20030;-62
2022/04/01 02:09:13;;;;;;;22.70;18.80;;;;;;;5.16;72.83;97088.47;2618763;54;20086;-62
2022/04/01 02:11:46;;;;;;;22.88;17.80;;;;;;;5.28;72.68;97094.75;2619439;54;20022;-61
2022/04/01 02:14:16;;;;;;;25.00;19.95;;;;;;;5.13;72.79;97094.91;2619066;47;20033;-61
2022/04/01 02:16:46;;;;;;;27.95;19.38;;;;;;;5.23;72.61;97094.53;2621680;39;20418;-61
2022/04/01 02:19:21;;;;;;;25.05;18.40;;;;;;;5.24;72.78;97093.53;2622595;54;20083;-61
2022/04/01 02:21:51;;;;;;;24.13;19.30;;;;;;;5.17;73.07;97085.66;2623377;54;20046;-61
2022/04/01 02:24:23;;;;;;;26.75;19.42;;;;;;;5.15;72.67;97092.13;2622697;54;20562;-60
2022/04/01 02:26:57;;;;;;;24.85;19.13;;;;;;;5.01;73.22;97090.47;2622312;47;20178;-63
2022/04/01 02:29:29;;;;;;;29.15;22.63;;;;;;;5.13;73.28;97091.50;2623773;54;20558;-62
2022/04/01 02:32:31;;;;;;;23.50;18.88;;;;;;;5.16;73.56;97089.28;2622669;54;20034;-62
2022/04/01 02:35:16;;;;;;;;;;;;;;;5.13;72.88;97097.53;2622786;54;20162;-62
2022/04/01 02:37:46;;;;;;;26.70;19.15;;;;;;;5.08;73.30;97089.47;2622834;47;19938;-61
2022/04/01 02:40:17;;;;;;;24.20;19.05;;;;;;;5.12;73.54;97095.13;2623312;39;20488;-61
2022/04/01 02:42:53;;;;;;;27.35;20.50;;;;;;;5.14;73.54;97095.72;2622817;54;20027;-61
2022/04/01 02:45:24;;;;;;;25.55;20.30;;;;;;;5.05;73.18;97094.31;2623541;39;20563;-63
2022/04/01 02:47:55;;;;;;;25.45;19.90;;;;;;;5.10;73.34;97099.75;2623703;39;20398;-62
2022/04/01 02:50:29;;;;;;;26.98;21.45;;;;;;;5.24;73.28;97095.34;2622947;54;20564;-62
2022/04/01 02:52:59;;;;;;;24.83;20.17;;;;;;;5.12;73.22;97098.56;2622799;54;20032;-61
2022/04/01 02:55:28;;;;;;;25.60;19.85;;;;;;;5.23;73.67;97091.94;2622931;54;20027;-62
2022/04/01 02:58:01;;;;;;;28.15;21.75;;;;;;;5.27;72.79;97094.94;2623000;47;20053;-61
2022/04/01 03:00:31;;;;;;;26.25;20.83;;;;;;;5.26;73.28;97101.19;2623375;47;20030;-61
2022/04/01 03:03:06;;;;;;;23.98;19.02;;;;;;;5.32;73.21;97100.41;2622799;47;20030;-62
2022/04/01 03:05:36;;;;;;;26.40;19.95;;;;;;;5.31;72.84;97098.78;2622733;39;20473;-62
2022/04/01 03:08:09;;;;;;;26.98;21.35;;;;;;;5.29;72.66;97091.09;2623050;46;20038;-62
2022/04/01 03:10:43;;;;;;;29.35;22.05;;;;;;;5.25;72.92;97095.13;2623083;54;20027;-62
2022/04/01 03:13:16;;;;;;;25.02;19.42;;;;;;;5.20;73.16;97094.94;2623213;47;20027;-61
2022/04/01 03:16:04;;;;;;;25.38;19.83;;;;;;;5.29;73.36;97095.53;2623201;54;20608;-59
2022/04/01 03:18:40;;;;;;;26.85;19.85;;;;;;;5.30;72.87;97105.00;2621440;47;20026;-61
2022/04/01 03:21:12;;;;;;;26.40;20.85;;;;;;;5.30;73.12;97097.16;2621881;47;20033;-61
2022/04/01 03:23:47;;;;;;;27.52;20.40;;;;;;;5.32;72.81;97103.81;2620949;51;20041;-61
2022/04/01 03:26:20;;;;;;;26.83;20.27;;;;;;;5.30;73.11;97092.72;2620761;47;20026;-61
2022/04/01 03:29:01;;;;;;;26.98;20.25;;;;;;;5.09;72.82;97103.38;2620749;47;20034;-61
2022/04/01 03:31:31;;;;;;;;;;;;;;;5.11;73.54;97104.81;2621213;47;20042;-61
2022/04/01 03:34:03;;;;;;;28.00;20.60;;;;;;;5.16;73.11;97110.25;2621764;39;20342;-60
2022/04/01 03:36:35;;;;;;;26.98;20.75;;;;;;;5.18;73.25;97107.41;2621277;54;20066;-61
2022/04/01 03:39:05;;;;;;;27.73;20.23;;;;;;;5.21;73.31;97101.78;2621426;54;20118;-61
2022/04/01 03:41:50;;;;;;;25.88;19.27;;;;;;;5.27;73.32;97108.06;2621582;47;20041;-61
2022/04/01 03:44:24;;;;;;;27.15;20.60;;;;;;;5.27;73.33;97106.25;2621178;54;20030;-62
2022/04/01 03:47:25;;;;;;;27.20;20.85;;;;;;;5.34;72.83;97104.41;2621459;54;20034;-61
2022/04/01 03:50:02;;;;;;;27.35;20.60;;;;;;;5.27;72.96;97108.06;2622220;54;20042;-61
2022/04/01 03:52:34;;;;;;;29.45;21.35;;;;;;;5.19;73.09;97104.63;2621393;52;20026;-61
2022/04/01 03:55:08;;;;;;;26.40;20.50;;;;;;;5.26;73.05;97106.41;2621988;54;20037;-60
2022/04/01 03:58:08;;;;;;;31.05;21.25;;;;;;;5.17;72.82;97101.38;2622432;47;20057;-61
2022/04/01 04:01:08;;;;;;;30.10;21.17;;;;;;;5.16;73.35;97109.44;2622967;46;20038;-61
2022/04/01 04:03:41;;;;;;;29.33;21.25;;;;;;;5.10;73.29;97108.44;2622286;54;20590;-61
2022/04/01 04:06:12;;;;;;;28.17;21.13;;;;;;;5.13;73.16;97113.25;2622636;54;20033;-61
2022/04/01 04:08:42;;;;;;;26.70;21.45;;;;;;;5.12;72.89;97106.41;2621997;46;20054;-63
2022/04/01 04:11:13;;;;;;;27.50;20.90;;;;;;;5.14;73.15;97114.88;2622125;54;20031;-61
2022/04/01 04:13:48;;;;;;;28.23;20.23;;;;;;;5.17;73.19;97116.28;2622934;54;20059;-60
2022/04/01 04:16:29;;;;;;;27.50;21.00;;;;;;;5.20;72.96;97121.94;2619457;54;20537;-62
2022/04/01 04:19:07;;;;;;;26.58;20.33;;;;;;;5.27;72.89;97119.34;2617628;39;20642;-63
2022/04/01 04:21:43;;;;;;;27.33;20.70;;;;;;;5.26;72.60;97122.13;2618498;39;20414;-62
2022/04/01 04:24:20;;;;;;;23.95;19.15;;;;;;;5.20;72.35;97123.75;2617964;50;20589;-64
2022/04/01 04:26:53;;;;;;;26.50;19.98;;;;;;;5.08;72.06;97125.34;2617426;46;20518;-62
2022/04/01 04:29:28;;;;;;;25.00;19.75;;;;;;;5.02;72.49;97126.13;2617745;54;20029;-62
2022/04/01 04:32:22;;;;;;;26.70;19.80;;;;;;;5.02;72.31;97131.34;2617560;47;20026;-63
2022/04/01 04:34:54;;;;;;;26.85;20.65;;;;;;;5.06;72.49;97138.66;2617571;47;20057;-63
2022/04/01 04:37:25;;;;;;;23.45;18.17;;;;;;;5.02;71.88;97141.84;2617419;54;20030;-63
2022/04/01 04:39:56;;;;;;;24.13;20.02;;;;;;;4.98;71.70;97138.84;2617554;46;20022;-63
2022/04/01 04:42:27;;;;;;;26.95;21.13;;;;;;;5.01;71.75;97148.09;2617706;47;20027;-62
2022/04/01 04:44:57;;;;;;;25.00;18.48;;;;;;;4.94;71.08;97145.47;2617305;47;20031;-64
2022/04/01 04:47:30;;;;;;;23.67;18.63;;;;;;;4.73;71.43;97141.13;2617896;54;20035;-61
2022/04/01 04:50:03;;;;;;;24.27;19.15;;;;;;;4.81;71.76;97148.81;2617499;52;20026;-62
2022/04/01 04:52:38;;;;;;;24.85;18.92;;;;;;;4.88;71.77;97149.66;2617409;54;20569;-63
2022/04/01 04:55:13;;;;;;;22.08;17.80;;;;;;;4.99;71.71;97157.97;2617247;54;20041;-63
2022/04/01 04:58:04;;;;;;;23.92;17.48;;;;;;;4.86;70.59;97167.38;2617785;54;20050;-62
2022/04/01 05:00:34;;;;;;;21.63;17.88;;;;;;;4.83;70.56;97169.59;2617309;54;20046;-62
2022/04/01 05:03:29;;;;;;;23.98;18.90;;;;;;;4.80;70.29;97165.53;2617513;47;20034;-62
2022/04/01 05:06:06;;;;;;;26.05;19.02;;;;;;;4.68;70.48;97164.47;2617947;47;20022;-63
2022/04/01 05:09:02;;;;;;;22.45;18.77;;;;;;;4.66;70.51;97174.34;2619725;54;20037;-62
2022/04/01 05:12:01;;;;;;;22.55;17.77;;;;;;;4.56;70.28;97184.34;2618622;39;20418;-63
2022/04/01 05:15:08;;;;;;;24.10;18.80;;;;;;;4.38;70.94;97180.44;2617112;47;20031;-63
2022/04/01 05:17:40;;;;;;;22.03;16.47;;;;;;;4.37;70.74;97189.31;2617303;54;20042;-63
2022/04/01 05:20:15;;;;;;;22.50;16.88;;;;;;;4.36;69.97;97185.06;2617865;39;20342;-63
2022/04/01 05:23:00;;;;;;;20.90;17.33;;;;;;;4.29;70.27;97197.31;2617359;54;20030;-64
2022/04/01 05:25:36;;;;;;;22.80;17.50;;;;;;;4.26;70.56;97189.84;2617343;47;20022;-63
2022/04/01 05:28:23;;;;;;;21.27;17.55;;;;;;;4.24;70.33;97202.28;2617149;47;20039;-62
2022/04/01 05:31:04;;;;;;;22.80;19.20;;;;;;;4.30;70.57;97209.38;2617482;54;20038;-61
2022/04/01 05:33:44;;;;;;;22.50;17.17;;;;;;;4.38;70.78;97211.03;2617279;47;20031;-61
2022/04/01 05:36:19;;;;;;;22.65;18.35;;;;;;;4.39;70.30;97203.00;2617777;39;20429;-62
2022/04/01 05:38:50;;;;;;;22.10;17.85;;;;;;;4.36;70.41;97213.84;2617326;51;20042;-61
2022/04/01 05:41:23;;;;;;;22.80;18.50;;;;;;;4.54;70.16;97213.34;2617358;54;20585;-62
2022/04/01 05:43:53;;;;;;;21.30;17.57;;;;;;;4.52;69.36;97214.53;2617461;47;20051;-62
2022/04/01 05:46:29;;;;;;;22.05;16.85;;;;;;;4.50;69.87;97224.41;2617475;51;20026;-62
2022/04/01 05:49:05;;;;;;;20.80;17.65;;;;;;;4.43;69.44;97217.31;2617157;47;20033;-62
2022/04/01 05:51:40;;;;;;;21.30;17.10;;;;;;;4.37;69.18;97227.75;2617437;54;20022;-62
2022/04/01 05:54:11;;;;;;;23.60;17.38;;;;;;;4.40;69.33;97229.97;2618018;54;20035;-62
2022/04/01 05:56:43;;;;;;;22.08;16.65;;;;;;;4.47;69.10;97228.19;2617222;54;20030;-62
2022/04/01 05:59:14;;;;;;;21.48;17.23;;;;;;;4.42;69.21;97230.59;2616961;54;20041;-62
2022/04/01 06:01:46;;;;;;;22.60;17.58;;;;;;;4.32;69.24;97233.53;2617643;39;20395;-62
2022/04/01 06:04:40;;;;;;;21.45;17.65;;;;;;;4.23;69.42;97235.47;2617075;47;20074;-62
2022/04/01 06:07:25;;;;;;;20.58;17.10;;;;;;;4.28;69.68;97236.72;2616982;47;20041;-63
2022/04/01 06:09:59;;;;;;;;;;;;;;;4.30;69.42;97229.50;2617709;47;20042;-63
2022/04/01 06:13:04;;;;;;;22.23;17.05;;;;;;;4.26;69.56;97242.16;2618106;54;20050;-63
2022/04/01 06:16:04;;;;;;;22.13;17.80;;;;;;;4.43;69.30;97247.91;2618878;54;20057;-62
2022/04/01 06:19:24;;;;;;;21.50;17.38;;;;;;;4.25;69.09;97247.59;2617819;47;20093;-62
2022/04/01 06:22:05;;;;;;;21.50;17.35;;;;;;;4.19;69.12;97252.56;2618277;47;20053;-62
2022/04/01 06:24:58;;;;;;;21.20;17.52;;;;;;;4.16;69.07;97260.81;2618173;47;20057;-62
2022/04/01 06:27:33;;;;;;;19.33;16.42;;;;;;;4.28;69.26;97257.66;2617833;54;20046;-62
2022/04/01 06:30:07;;;;;;;20.52;16.77;;;;;;;4.23;68.45;97269.50;2618278;46;20023;-62
2022/04/01 06:32:50;;;;;;;17.88;15.00;;;;;;;4.20;67.83;97269.06;2618150;54;20050;-62
2022/04/01 06:35:30;;;;;;;17.27;14.93;;;;;;;4.22;68.15;97270.50;2617804;54;20034;-62
2022/04/01 06:38:28;;;;;;;16.92;14.52;;;;;;;4.27;67.75;97271.72;2617787;54;20086;-62
2022/04/01 06:41:06;;;;;;;17.17;14.57;;;;;;;4.36;68.37;97274.00;2617810;54;20038;-62
2022/04/01 06:43:54;;;;;;;16.08;13.90;;;;;;;4.29;67.70;97286.25;2618246;54;20058;-63
2022/04/01 06:46:42;;;;;;;18.20;15.93;;;;;;;4.17;67.94;97279.91;2618438;54;20041;-61
2022/04/01 06:49:17;;;;;;;29.48;24.05;;;;;;;4.28;68.26;97281.19;2617928;54;20033;-62
2022/04/01 06:51:47;;;;;;;17.73;14.00;;;;;;;4.30;67.56;97285.25;2618687;54;20046;-62
2022/04/01 06:54:37;;;;;;;16.60;14.05;;;;;;;4.14;67.65;97282.91;2618830;54;20034;-63
2022/04/01 06:57:28;;;;;;;15.82;13.23;;;;;;;3.98;67.74;97281.34;2618407;54;20034;-62
2022/04/01 07:00:20;;;;;;;16.88;12.82;;;;;;;4.06;68.21;97289.06;2618062;46;20051;-63
2022/04/01 07:02:49;;;;;;;14.95;13.15;;;;;;;4.14;68.02;97298.59;2618305;54;20023;-63
2022/04/01 07:05:19;;;;;;;15.82;13.00;;;;;;;4.25;68.42;97287.63;2618209;39;20438;-63
2022/04/01 07:07:49;;;;;;;16.98;13.98;;;;;;;4.41;67.70;97294.38;2618229;54;20034;-63
2022/04/01 07:10:18;;;;;;;15.25;13.43;;;;;;;4.32;67.50;97291.09;2618416;54;20039;-63
2022/04/01 07:12:51;;;;;;;14.68;13.15;;;;;;;4.22;67.70;97299.25;2618513;54;20030;-64
2022/04/01 07:15:21;;;;;;;15.48;12.77;;;;;;;4.20;67.56;97296.03;2618271;54;20037;-64
2022/04/01 07:17:51;;;;;;;15.50;13.52;;;;;;;4.19;67.61;97289.19;2618065;54;20564;-64
2022/04/01 07:20:22;;;;;;;15.15;13.55;;;;;;;4.26;67.99;97297.09;2617777;47;20425;-63
2022/04/01 07:22:54;;;;;;;13.30;11.82;;;;;;;4.07;67.25;97295.91;2618229;54;20035;-63
2022/04/01 07:25:25;;;;;;;12.90;11.50;;;;;;;4.13;67.65;97296.97;2618615;54;20069;-63
2022/04/01 07:27:57;;;;;;;13.45;12.05;;;;;;;4.18;67.43;97302.44;2618165;54;20026;-63
2022/04/01 07:30:27;;;;;;;14.40;12.90;;;;;;;4.14;67.84;97298.59;2618379;54;20030;-62
2022/04/01 07:33:00;;;;;;;15.55;13.70;;;;;;;4.23;67.79;97300.06;2618423;54;20018;-62
2022/04/01 07:35:29;;;;;;;14.25;12.75;;;;;;;4.24;67.15;97296.44;2618695;39;20421;-63
2022/04/01 07:37:59;;;;;;;14.15;12.60;;;;;;;4.22;67.58;97304.50;2618098;54;20026;-63
2022/04/01 07:40:29;;;;;;;13.48;11.63;;;;;;;4.45;67.79;97311.34;2618422;54;20027;-63
2022/04/01 07:43:01;;;;;;;13.73;12.30;;;;;;;4.30;66.75;97313.22;2618526;54;20027;-64
2022/04/01 07:45:33;;;;;;;11.82;10.40;;;;;;;4.28;66.50;97315.19;2618718;39;20441;-64
2022/04/01 07:48:06;;;;;;;12.15;10.85;;;;;;;4.37;67.10;97319.31;2618073;54;20034;-62
2022/04/01 07:50:36;;;;;;;13.70;12.30;;;;;;;4.53;66.96;97324.28;2617703;54;20034;-63
2022/04/01 07:53:06;;;;;;;13.05;11.43;;;;;;;4.45;66.29;97327.84;2618329;46;20077;-62
2022/04/01 07:55:36;;;;;;;15.98;13.70;;;;;;;4.40;66.41;97332.00;2617844;51;20027;-63
2022/04/01 07:58:09;;;;;;;13.23;11.80;;;;;;;4.19;66.53;97335.44;2618177;54;20026;-63
2022/04/01 08:00:54;;;;;;;13.48;11.85;;;;;;;4.16;66.77;97334.03;2618405;54;20030;-63
2022/04/01 08:03:24;;;;;;;12.20;10.70;;;;;;;4.06;67.05;97333.53;2618395;54;20057;-61
2022/04/01 08:05:54;;;;;;;12.77;11.35;;;;;;;4.03;66.81;97335.69;2618401;54;20026;-62
2022/04/01 08:08:23;;;;;;;12.55;11.25;;;;;;;4.22;66.84;97335.09;2618293;54;20141;-64
2022/04/01 08:10:54;;;;;;;12.85;11.50;;;;;;;4.47;65.85;97333.66;2618378;54;20038;-63
2022/04/01 08:13:26;;;;;;;12.50;10.98;;;;;;;4.65;65.49;97335.84;2617939;54;20038;-64
2022/04/01 08:15:56;;;;;;;11.85;10.10;;;;;;;4.41;65.66;97328.41;2617486;47;20033;-63
2022/04/01 08:18:26;;;;;;;12.63;11.00;;;;;;;4.64;65.45;97325.53;2618208;54;20057;-63
2022/04/01 08:20:56;;;;;;;13.02;11.32;;;;;;;4.69;64.96;97333.63;2618519;54;20031;-62
2022/04/01 08:23:26;;;;;;;11.30;10.18;;;;;;;4.56;64.80;97344.81;2618527;54;20026;-62
2022/04/01 08:25:56;;;;;;;11.95;10.68;;;;;;;4.54;65.27;97348.63;2618654;54;20677;-63
2022/04/01 08:28:28;;;;;;;11.70;10.23;;;;;;;4.63;65.33;97347.50;2618420;54;20034;-63
2022/04/01 08:30:58;;;;;;;13.95;10.40;;;;;;;4.81;65.28;97342.56;2620434;54;20033;-63
2022/04/01 08:33:28;;;;;;;11.35;9.70;;;;;;;4.92;64.86;97347.28;2617884;47;20030;-63
2022/04/01 08:35:58;;;;;;;11.38;9.90;;;;;;;4.85;64.01;97351.66;2619408;39;20395;-63
2022/04/01 08:38:28;;;;;;;11.00;9.88;;;;;;;4.84;64.75;97349.25;2618228;47;20034;-64
2022/04/01 08:40:57;;;;;;;10.27;9.18;;;;;;;4.88;64.48;97359.13;2619308;54;20038;-63
2022/04/01 08:43:32;;;;;;;11.30;10.15;;;;;;;4.76;64.11;97359.84;2618966;54;20049;-64
2022/04/01 08:46:04;;;;;;;9.88;8.65;;;;;;;4.62;63.11;97357.16;2618220;47;20037;-63
2022/04/01 08:48:36;;;;;;;11.43;9.63;;;;;;;4.62;63.93;97364.19;2618512;54;20026;-62
2022/04/01 08:51:06;;;;;;;10.65;9.50;;;;;;;4.67;64.11;97367.84;2618992;54;20046;-63
2022/04/01 08:53:37;;;;;;;11.13;10.02;;;;;;;4.70;63.39;97361.44;2617913;54;20046;-62
2022/04/01 08:56:08;;;;;;;10.10;9.05;;;;;;;4.75;62.84;97380.00;2617781;54;20030;-62
2022/04/01 08:58:41;;;;;;;11.93;9.52;;;;;;;4.69;62.59;97372.88;2617642;54;20034;-63
2022/04/01 09:01:11;;;;;;;10.73;9.63;;;;;;;4.86;62.11;97371.63;2618297;54;20037;-62
2022/04/01 09:03:42;;;;;;;10.48;9.38;;;;;;;5.05;62.54;97380.59;2617800;54;20075;-62
2022/04/01 09:06:12;;;;;;;10.70;9.00;;;;;;;4.84;62.25;97378.84;2621034;54;20026;-61
2022/04/01 09:08:44;;;;;;;11.13;10.00;;;;;;;4.85;62.66;97390.94;2623381;54;20037;-62
2022/04/01 09:11:17;;;;;;;10.65;9.60;;;;;;;4.92;62.44;97394.41;2623531;54;20034;-62
2022/04/01 09:13:54;;;;;;;9.20;7.82;;;;;;;4.74;61.94;97394.09;2624401;31;20549;-61
2022/04/01 09:16:31;;;;;;;10.43;9.38;;;;;;;4.79;62.21;97389.09;2620779;54;20546;-61
2022/04/01 09:19:02;;;;;;;10.98;9.55;;;;;;;4.82;62.12;97398.38;2619252;54;20521;-62
2022/04/01 09:21:33;;;;;;;9.70;8.70;;;;;;;4.85;61.97;97406.63;2620148;54;20027;-62
2022/04/01 09:24:03;;;;;;;9.68;8.30;;;;;;;4.74;61.39;97398.53;2618687;54;20034;-61
2022/04/01 09:26:35;;;;;;;10.68;9.00;;;;;;;4.64;61.70;97399.63;2618139;54;20038;-63
2022/04/01 09:29:10;;;;;;;13.38;10.00;;;;;;;4.74;62.33;97401.13;2618009;54;20042;-63
2022/04/01 09:31:41;;;;;;;10.93;8.95;;;;;;;4.74;61.66;97401.94;2618516;39;20415;-62
2022/04/01 09:34:13;;;;;;;11.95;9.40;;;;;;;4.68;61.79;97411.34;2618024;54;20545;-62
2022/04/01 09:36:45;;;;;;;10.68;9.15;;;;;;;4.71;61.79;97412.78;2618105;54;20038;-63
2022/04/01 09:39:16;;;;;;;10.55;8.77;;;;;;;4.62;61.87;97419.97;2617796;54;20053;-64
2022/04/01 09:41:47;;;;;;;12.25;9.20;;;;;;;4.61;61.58;97430.59;2618089;54;20038;-63
2022/04/01 09:44:30;;;;;;;10.60;9.52;;;;;;;4.52;61.85;97434.34;2617576;54;20018;-62
2022/04/01 09:47:02;;;;;;;11.02;9.93;;;;;;;4.29;62.03;97427.50;2618821;54;20077;-62
2022/04/01 09:49:36;;;;;;;13.50;9.82;;;;;;;4.32;61.67;97434.97;2618210;54;20033;-62
2022/04/01 09:52:10;;;;;;;;;;;;;;;4.31;62.05;97443.81;2619193;54;20029;-62
2022/04/01 09:54:46;;;;;;;13.18;10.18;;;;;;;4.34;62.42;97440.03;2618795;54;19953;-63
2022/04/01 09:57:16;;;;;;;10.13;8.68;;;;;;;4.21;62.47;97451.97;2619042;54;20033;-62
2022/04/01 09:59:50;;;;;;;13.13;10.23;;;;;;;3.93;62.84;97454.47;2618922;54;20085;-63
2022/04/01 10:02:20;;;;;;;;;;;;;;;3.81;63.17;97455.13;2618610;46;20038;-62
2022/04/01 10:04:50;;;;;;;11.77;9.10;;;;;;;3.70;63.83;97459.00;2618786;54;20426;-62
2022/04/01 10:07:22;;;;;;;10.77;8.65;;;;;;;3.60;64.30;97445.44;2619237;54;20039;-63
2022/04/01 10:09:56;;;;;;;12.98;10.55;;;;;;;3.52;64.31;97453.34;2620333;54;20038;-63
2022/04/01 10:12:34;;;;;;;11.15;9.52;;;;;;;3.84;64.22;97441.72;2622088;54;20045;-63
2022/04/01 10:15:10;;;;;;;14.40;10.23;;;;;;;3.96;63.23;97453.31;2620836;54;20145;-62
2022/04/01 10:17:56;;;;;;;12.75;8.95;;;;;;;3.98;62.90;97454.72;2622100;54;20970;-62
2022/04/01 10:20:33;;;;;;;13.63;10.68;;;;;;;3.97;62.46;97458.34;2624258;54;20041;-60
2022/04/01 10:23:04;;;;;;;13.25;10.77;;;;;;;3.94;62.92;97463.13;2623789;54;20031;-62
2022/04/01 10:25:45;;;;;;;11.10;9.20;;;;;;;3.93;62.37;97458.91;2623327;54;20115;-61
2022/04/01 10:28:16;;;;;;;14.02;9.35;;;;;;;3.88;63.23;97463.88;2623357;54;20038;-62
2022/04/01 10:30:56;;;;;;;12.73;8.57;;;;;;;3.88;63.19;97466.50;2623971;54;20022;-62
2022/04/01 10:33:29;;;;;;;13.02;10.15;;;;;;;3.88;62.86;97469.09;2623462;54;20161;-62
2022/04/01 10:35:58;;;;;;;12.52;9.75;;;;;;;3.93;62.16;97467.56;2624065;54;20099;-61
2022/04/01 10:38:33;;;;;;;13.18;9.23;;;;;;;3.87;62.60;97473.50;2623011;47;20162;-62
2022/04/01 10:41:12;;;;;;;10.50;8.50;;;;;;;3.79;62.60;97473.59;2623393;54;20042;-60
2022/04/01 10:43:44;;;;;;;10.88;8.30;;;;;;;3.86;62.32;97484.16;2623144;54;20026;-61
2022/04/01 10:46:20;;;;;;;11.00;8.70;;;;;;;3.74;62.57;97483.78;2622216;54;20025;-63
2022/04/01 10:52:04;;;;;;;11.38;9.25;;;;;;;3.57;63.10;97484.97;2623023;54;20113;-62
2022/04/01 10:54:46;;;;;;;11.98;8.68;;;;;;;3.57;63.55;97485.78;2623670;54;20035;-62
2022/04/01 10:57:27;;;;;;;11.95;10.10;;;;;;;3.78;63.42;97495.50;2623142;47;20033;-62
2022/04/01 11:00:00;;;;;;;9.82;8.45;;;;;;;3.68;62.67;97490.56;2623746;54;20049;-60
2022/04/01 11:02:33;;;;;;;11.20;8.02;;;;;;;3.51;62.63;97496.13;2624017;54;20542;-61
2022/04/01 11:05:29;;;;;;;9.45;8.38;;;;;;;3.61;63.05;97494.88;2622998;54;20850;-61
2022/04/01 11:08:19;;;;;;;10.18;8.73;;;;;;;3.59;62.85;97498.66;2622681;54;20587;-61
2022/04/01 11:11:12;;;;;;;10.50;8.25;;;;;;;3.66;61.98;97505.59;2622803;54;20027;-60
2022/04/01 11:13:42;;;;;;;10.52;8.88;;;;;;;3.64;61.95;97505.00;2622585;54;20042;-61
2022/04/01 11:16:22;;;;;;;18.33;14.82;;;;;;;3.62;62.62;97506.16;2622306;54;20074;-60
2022/04/01 11:19:28;;;;;;;11.05;9.57;;;;;;;3.67;62.77;97506.41;2621757;54;20031;-63
2022/04/01 11:22:03;;;;;;;9.40;8.40;;;;;;;3.49;62.84;97514.63;2621291;54;20066;-63
2022/04/01 11:24:35;;;;;;;13.82;8.45;;;;;;;3.62;62.07;97511.38;2622706;54;20038;-62
2022/04/01 11:27:09;;;;;;;9.10;7.78;;;;;;;3.72;62.06;97511.94;2622083;54;20035;-61
2022/04/01 11:29:39;;;;;;;10.00;8.63;;;;;;;3.65;61.55;97519.66;2624693;54;20037;-60
2022/04/01 11:32:09;;;;;;;11.23;8.38;;;;;;;3.52;62.31;97516.06;2625479;54;20058;-61
2022/04/01 11:34:57;;;;;;;11.25;9.45;;;;;;;3.63;62.12;97523.44;2625286;54;20022;-60
2022/04/01 11:37:30;;;;;;;12.23;7.50;;;;;;;3.42;61.57;97521.53;2624641;54;20587;-61
2022/04/01 11:40:09;;;;;;;12.45;8.65;;;;;;;3.41;61.99;97541.63;2624094;47;20026;-60
2022/04/01 11:42:52;;;;;;;11.07;7.97;;;;;;;3.38;61.98;97528.91;2622959;54;20083;-61
2022/04/01 11:45:23;;;;;;;12.73;8.02;;;;;;;3.40;62.04;97524.34;2622501;54;20102;-62
2022/04/01 11:47:53;;;;;;;10.50;8.52;;;;;;;3.44;61.74;97538.66;2622742;54;20039;-61
2022/04/01 11:50:25;;;;;;;11.20;8.55;;;;;;;3.40;61.87;97534.78;2623947;39;20460;-60
2022/04/01 11:53:00;;;;;;;14.07;9.55;;;;;;;3.47;61.76;97532.28;2622739;54;20141;-62
2022/04/01 11:55:32;;;;;;;9.90;7.97;;;;;;;3.38;61.62;97531.53;2622722;54;20030;-60
2022/04/01 11:58:01;;;;;;;13.35;9.18;;;;;;;3.43;61.68;97526.59;2621792;47;20550;-60
2022/04/01 12:00:33;;;;;;;10.13;8.27;;;;;;;3.41;62.06;97531.19;2622483;54;20034;-62
2022/04/01 12:03:02;;;;;;;9.32;8.35;;;;;;;3.27;61.50;97537.19;2622750;54;20031;-60
2022/04/01 12:05:33;;;;;;;11.15;8.45;;;;;;;3.29;62.15;97540.44;2623090;54;20025;-61
2022/04/01 12:10:53;;;;;;;10.00;7.72;;;;;;;3.29;62.59;97534.41;2621460;54;20033;-61
2022/04/01 12:13:24;;;;;;;10.68;8.50;;;;;;;3.33;62.07;97531.25;2622636;54;20023;-62
2022/04/01 12:15:55;;;;;;;9.63;8.30;;;;;;;3.21;62.19;97541.31;2623069;54;20022;-60